This is the latest recevied weather packets stored in our database for station/object KK6LVQ-13. If no packets are shown the sender has not sent any weather packets the latest 10 day(s).
| Time | Temp. | Humidity | Pressure | Rain* | Wind** | Luminosity | Snow |
|---|---|---|---|---|---|---|---|
| 1777750744 | 15.56° C | 81% | 1019.3 hPa | 0 mm | - | 435 W/m² | - |
| 1777750441 | 16.11° C | 78% | 1019.3 hPa | 0 mm | - | 410 W/m² | - |
| 1777750136 | 15.56° C | 78% | 1019.7 hPa | 0 mm | - | 245 W/m² | - |
| 1777749834 | 16.11° C | 78% | 1019.3 hPa | 0 mm | - | 311 W/m² | - |
| 1777749530 | 15.56° C | 81% | 1019.6 hPa | 0 mm | - | 306 W/m² | - |
| 1777749229 | 15.56° C | 80% | 1019.7 hPa | 0 mm | - | 368 W/m² | - |
| 1777748926 | 15.56° C | 79% | 1019.6 hPa | 0 mm | - | 307 W/m² | - |
| 1777748623 | 15.56° C | 79% | 1019.6 hPa | 0 mm | - | 293 W/m² | - |
| 1777748319 | 15° C | 81% | 1019.8 hPa | 0 mm | - | 306 W/m² | - |
| 1777748014 | 15° C | 82% | 1019.6 hPa | 0 mm | - | 291 W/m² | - |
| 1777747712 | 15° C | 81% | 1019.6 hPa | 0 mm | - | 281 W/m² | - |
| 1777747407 | 14.44° C | 82% | 1019.6 hPa | 0 mm | - | 260 W/m² | - |
| 1777747104 | 14.44° C | 83% | 1019.7 hPa | 0 mm | - | 247 W/m² | - |
| 1777746800 | 14.44° C | 82% | 1019.8 hPa | 0 mm | - | 263 W/m² | - |
| 1777746495 | 15° C | 81% | 1019.7 hPa | 0 mm | - | 300 W/m² | - |
| 1777746191 | 13.89° C | 83% | 1019.7 hPa | 0 mm | - | 299 W/m² | - |
| 1777745888 | 13.89° C | 83% | 1019.6 hPa | 0 mm | - | 228 W/m² | - |
| 1777745587 | 14.44° C | 83% | 1019.7 hPa | 0 mm | - | 240 W/m² | - |
| 1777745284 | 13.89° C | 84% | 1019.7 hPa | 0 mm | - | 189 W/m² | - |
| 1777744981 | 13.89° C | 84% | 1019.8 hPa | 0 mm | - | 193 W/m² | - |
| 1777744676 | 13.33° C | 87% | 1019.7 hPa | 0 mm | - | 200 W/m² | - |
| 1777744370 | 12.78° C | 87% | 1019.7 hPa | 0 mm | - | 184 W/m² | - |
| 1777744068 | 12.78° C | 87% | 1019.7 hPa | 0 mm | - | 156 W/m² | - |
| 1777743765 | 12.78° C | 87% | 1019.8 hPa | 0 mm | - | 143 W/m² | - |
| 1777743462 | 13.33° C | 87% | 1019.7 hPa | 0 mm | - | 158 W/m² | - |
* Rain latest hour (hover to see other rain measurements)
** Current wind speed in m/s (hover to see current wind gust speed)